createdAt,value
2019-04-28T00:00:08.393Z,99332.00
2019-04-28T00:02:15.555Z,99331.00
2019-04-28T00:04:21.507Z,99332.00
2019-04-28T00:06:26.682Z,99334.00
2019-04-28T00:08:32.414Z,99335.00
2019-04-28T00:10:37.929Z,99337.00
2019-04-28T00:12:42.939Z,99332.00
2019-04-28T00:14:48.382Z,99338.00
2019-04-28T00:16:54.234Z,99324.00
2019-04-28T00:19:01.135Z,99331.00
2019-04-28T00:21:34.599Z,99329.00
2019-04-28T00:23:56.279Z,99340.00
2019-04-28T00:26:24.766Z,99345.00
2019-04-28T00:28:31.150Z,99342.00
2019-04-28T00:30:37.178Z,99327.00
2019-04-28T00:32:42.679Z,99330.00
2019-04-28T00:34:51.325Z,99337.00
2019-04-28T00:37:01.668Z,99334.00
2019-04-28T00:39:08.157Z,99340.00
2019-04-28T00:41:13.716Z,99337.00
2019-04-28T00:43:19.138Z,99337.00
2019-04-28T00:45:24.317Z,99335.00
2019-04-28T00:47:31.156Z,99326.00
2019-04-28T00:49:54.453Z,99331.00
2019-04-28T00:52:00.689Z,99331.00
2019-04-28T00:54:06.962Z,99322.00
2019-04-28T00:56:12.191Z,99326.00
2019-04-28T00:58:17.177Z,99323.00
2019-04-28T01:00:25.749Z,99326.00
2019-04-28T01:02:41.318Z,99323.00
2019-04-28T01:04:51.327Z,99333.00
2019-04-28T01:06:56.552Z,99329.00
2019-04-28T01:09:03.874Z,99326.00
2019-04-28T01:11:09.154Z,99329.00
2019-04-28T01:13:14.252Z,99325.00
2019-04-28T01:15:29.830Z,99315.00
2019-04-28T01:18:00.811Z,99324.00
2019-04-28T01:20:09.756Z,99325.00
2019-04-28T01:22:20.013Z,99324.00
2019-04-28T01:24:26.218Z,99328.00
2019-04-28T01:26:31.313Z,99325.00
2019-04-28T01:28:36.739Z,99323.00
2019-04-28T01:31:03.997Z,99326.00
2019-04-28T01:33:16.152Z,99324.00
2019-04-28T01:35:21.339Z,99332.00
2019-04-28T01:37:26.678Z,99326.00
2019-04-28T01:39:31.938Z,99326.00
2019-04-28T01:41:37.270Z,99323.00
2019-04-28T01:43:42.715Z,99326.00
2019-04-28T01:45:47.835Z,99328.00
2019-04-28T01:47:53.232Z,99323.00
2019-04-28T01:50:01.768Z,99325.00
2019-04-28T01:52:05.896Z,99333.00
2019-04-28T01:54:11.699Z,99323.00
2019-04-28T01:56:16.881Z,99330.00
2019-04-28T01:58:21.966Z,99325.00
2019-04-28T02:00:29.675Z,99335.00
2019-04-28T02:02:36.993Z,99334.00
2019-04-28T02:04:42.076Z,99346.00
2019-04-28T02:06:47.194Z,99346.00
2019-04-28T02:08:52.643Z,99343.00
2019-04-28T02:11:00.008Z,99344.00
2019-04-28T02:13:05.704Z,99339.00
2019-04-28T02:15:11.211Z,99336.00
2019-04-28T02:17:16.308Z,99342.00
2019-04-28T02:19:21.816Z,99349.00
2019-04-28T02:21:44.719Z,99346.00
2019-04-28T02:23:51.459Z,99354.00
2019-04-28T02:25:56.820Z,99349.00
2019-04-28T02:28:02.935Z,99358.00
2019-04-28T02:30:11.680Z,99360.00
2019-04-28T02:32:16.983Z,99356.00
2019-04-28T02:34:22.175Z,99359.00
2019-04-28T02:36:27.659Z,99357.00
2019-04-28T02:38:34.298Z,99356.00
2019-04-28T02:40:40.806Z,99357.00
2019-04-28T02:42:45.968Z,99363.00
2019-04-28T02:44:51.881Z,99359.00
2019-04-28T02:46:57.074Z,99359.00
2019-04-28T02:49:03.061Z,99365.00
2019-04-28T02:51:20.855Z,99362.00
2019-04-28T02:53:30.932Z,99365.00
2019-04-28T02:55:35.783Z,99357.00
2019-04-28T02:57:41.298Z,99359.00
2019-04-28T02:59:46.675Z,99359.00
2019-04-28T03:01:51.778Z,99362.00
2019-04-28T03:03:57.137Z,99365.00
2019-04-28T03:06:02.754Z,99360.00
2019-04-28T03:08:10.952Z,99366.00
2019-04-28T03:10:15.617Z,99364.00
2019-04-28T03:12:21.629Z,99358.00
2019-04-28T03:14:27.092Z,99367.00
2019-04-28T03:16:32.261Z,99362.00
2019-04-28T03:18:38.006Z,99359.00
2019-04-28T03:20:43.618Z,99369.00
2019-04-28T03:22:50.987Z,99363.00
2019-04-28T03:24:57.401Z,99363.00
2019-04-28T03:27:31.061Z,99378.00
2019-04-28T03:29:46.715Z,99371.00
2019-04-28T03:32:28.514Z,99375.00
2019-04-28T03:34:13.194Z,99371.00
2019-04-28T03:36:23.155Z,99361.00
2019-04-28T03:38:25.761Z,99370.00
2019-04-28T03:40:33.649Z,99367.00
2019-04-28T03:42:37.595Z,99375.00
2019-04-28T03:44:43.703Z,99377.00
2019-04-28T03:46:52.681Z,99372.00
2019-04-28T03:49:00.482Z,99383.00
2019-04-28T03:51:05.050Z,99380.00
2019-04-28T03:53:11.203Z,99386.00
2019-04-28T03:55:16.297Z,99380.00
2019-04-28T03:57:22.104Z,99379.00
2019-04-28T03:59:27.395Z,99384.00
2019-04-28T04:01:32.355Z,99389.00
2019-04-28T04:03:37.781Z,99380.00
2019-04-28T04:05:42.909Z,99377.00
2019-04-28T04:07:50.710Z,99383.00
2019-04-28T04:10:07.678Z,99391.00
2019-04-28T04:12:31.044Z,99384.00
2019-04-28T04:14:50.613Z,99384.00
2019-04-28T04:17:21.178Z,99388.00
2019-04-28T04:19:26.350Z,99397.00
2019-04-28T04:21:32.212Z,99390.00
2019-04-28T04:23:37.655Z,99387.00
2019-04-28T04:25:43.732Z,99397.00
2019-04-28T04:27:50.191Z,99401.00
2019-04-28T04:29:55.426Z,99395.00
2019-04-28T04:32:11.614Z,99394.00
2019-04-28T04:34:07.409Z,99402.00
2019-04-28T04:36:12.595Z,99400.00
2019-04-28T04:38:18.307Z,99408.00
2019-04-28T04:40:23.471Z,99402.00
2019-04-28T04:42:30.622Z,99405.00
2019-04-28T04:44:40.587Z,99409.00
2019-04-28T04:46:43.324Z,99402.00
2019-04-28T04:48:50.736Z,99413.00
2019-04-28T04:50:55.262Z,99410.00
2019-04-28T04:53:02.657Z,99412.00
2019-04-28T04:55:11.037Z,99412.00
2019-04-28T04:57:15.366Z,99403.00
2019-04-28T04:59:20.421Z,99413.00
2019-04-28T05:01:34.991Z,99409.00
2019-04-28T05:03:42.456Z,99410.00
2019-04-28T05:05:47.958Z,99413.00
2019-04-28T05:07:53.125Z,99418.00
2019-04-28T05:09:59.546Z,99421.00
2019-04-28T05:12:05.050Z,99417.00
2019-04-28T05:14:12.095Z,99426.00
2019-04-28T05:16:19.682Z,99430.00
2019-04-28T05:18:24.542Z,99425.00
2019-04-28T05:20:30.331Z,99427.00
2019-04-28T05:22:39.971Z,99431.00
2019-04-28T05:24:55.526Z,99427.00
2019-04-28T05:27:00.905Z,99432.00
2019-04-28T05:29:06.082Z,99437.00
2019-04-28T05:31:17.430Z,99443.00
2019-04-28T05:33:30.590Z,99433.00
2019-04-28T05:35:35.787Z,99442.00
2019-04-28T05:37:41.461Z,99440.00
2019-04-28T05:39:46.732Z,99446.00
2019-04-28T05:41:52.498Z,99442.00
2019-04-28T05:43:59.563Z,99446.00
2019-04-28T05:46:04.534Z,99454.00
2019-04-28T05:48:11.329Z,99445.00
2019-04-28T05:50:23.349Z,99449.00
2019-04-28T05:52:40.359Z,99456.00
2019-04-28T05:54:52.032Z,99450.00
2019-04-28T05:57:20.660Z,99448.00
2019-04-28T05:59:56.710Z,99449.00
2019-04-28T06:02:10.592Z,99453.00
2019-04-28T06:04:19.863Z,99448.00
2019-04-28T06:06:30.267Z,99457.00
2019-04-28T06:08:55.905Z,99450.00
2019-04-28T06:11:02.565Z,99446.00
2019-04-28T06:13:09.860Z,99450.00
2019-04-28T06:15:15.014Z,99453.00
2019-04-28T06:17:20.717Z,99450.00
2019-04-28T06:19:25.757Z,99455.00
2019-04-28T06:21:31.243Z,99455.00
2019-04-28T06:23:36.536Z,99456.00
2019-04-28T06:25:41.965Z,99455.00
2019-04-28T06:27:47.199Z,99462.00
2019-04-28T06:29:52.233Z,99454.00
2019-04-28T06:31:57.721Z,99465.00
2019-04-28T06:34:03.261Z,99457.00
2019-04-28T06:36:08.952Z,99468.00
2019-04-28T06:38:14.416Z,99475.00
2019-04-28T06:42:26.766Z,99473.00
2019-04-28T06:44:32.405Z,99470.00
2019-04-28T06:46:37.893Z,99480.00
2019-04-28T06:48:43.856Z,99477.00
2019-04-28T06:50:49.039Z,99478.00
2019-04-28T06:52:54.315Z,99480.00
2019-04-28T06:54:59.680Z,99488.00
2019-04-28T06:57:04.877Z,99484.00
2019-04-28T06:59:09.965Z,99495.00
2019-04-28T07:01:15.729Z,99493.00
2019-04-28T07:03:23.214Z,99491.00
2019-04-28T07:05:27.791Z,99489.00
2019-04-28T07:07:32.959Z,99487.00
2019-04-28T07:09:38.243Z,99499.00
2019-04-28T07:11:43.633Z,99496.00
2019-04-28T07:13:49.287Z,99494.00
2019-04-28T07:15:54.467Z,99500.00
2019-04-28T07:17:59.631Z,99501.00
2019-04-28T07:20:25.218Z,99498.00
2019-04-28T07:22:30.981Z,99494.00
2019-04-28T07:24:36.186Z,99495.00
2019-04-28T07:26:41.380Z,99500.00
2019-04-28T07:28:46.521Z,99502.00
2019-04-28T07:30:52.003Z,99503.00
2019-04-28T07:32:57.499Z,99510.00
2019-04-28T07:35:02.944Z,99491.00
2019-04-28T07:37:08.602Z,99493.00
2019-04-28T07:39:13.677Z,99494.00
2019-04-28T07:41:19.228Z,99501.00
2019-04-28T07:43:24.314Z,99509.00
2019-04-28T07:45:29.828Z,99503.00
2019-04-28T07:47:34.852Z,99505.00
2019-04-28T07:49:39.973Z,99503.00
2019-04-28T07:52:02.091Z,99507.00
2019-04-28T07:54:10.103Z,99505.00
2019-04-28T07:56:15.229Z,99509.00
2019-04-28T07:58:20.506Z,99509.00
2019-04-28T08:00:29.223Z,99514.00
2019-04-28T08:02:34.537Z,99518.00
2019-04-28T08:04:39.548Z,99509.00
2019-04-28T08:06:44.757Z,99512.00
2019-04-28T08:08:49.937Z,99521.00
2019-04-28T08:10:55.304Z,99525.00
2019-04-28T08:13:00.764Z,99522.00
2019-04-28T08:15:06.707Z,99522.00
2019-04-28T08:17:11.807Z,99521.00
2019-04-28T08:19:16.929Z,99526.00
2019-04-28T08:21:22.139Z,99517.00
2019-04-28T08:23:27.508Z,99521.00
2019-04-28T08:25:32.630Z,99529.00
2019-04-28T08:27:38.048Z,99529.00
2019-04-28T08:29:43.415Z,99528.00
2019-04-28T08:31:58.802Z,99532.00
2019-04-28T08:34:06.017Z,99522.00
2019-04-28T08:36:11.031Z,99526.00
2019-04-28T08:38:16.219Z,99533.00
2019-04-28T08:40:21.975Z,99531.00
2019-04-28T08:42:28.172Z,99533.00
2019-04-28T08:44:33.927Z,99539.00
2019-04-28T08:46:39.585Z,99544.00
2019-04-28T08:48:44.752Z,99546.00
2019-04-28T08:50:49.864Z,99549.00
2019-04-28T08:52:55.747Z,99545.00
2019-04-28T08:55:01.538Z,99550.00
2019-04-28T08:57:06.864Z,99543.00
2019-04-28T08:59:12.134Z,99550.00
2019-04-28T09:01:17.239Z,99548.00
2019-04-28T09:03:22.354Z,99553.00
2019-04-28T09:05:27.438Z,99552.00
2019-04-28T09:07:32.986Z,99553.00
2019-04-28T09:09:38.190Z,99557.00
2019-04-28T09:11:43.681Z,99561.00
2019-04-28T09:13:49.038Z,99563.00
2019-04-28T09:15:54.698Z,99551.00
2019-04-28T09:18:00.162Z,99548.00
2019-04-28T09:20:05.528Z,99561.00
2019-04-28T09:22:10.983Z,99561.00
2019-04-28T09:24:16.174Z,99564.00
2019-04-28T09:26:21.751Z,99564.00
2019-04-28T09:28:27.164Z,99562.00
2019-04-28T09:30:32.260Z,99568.00
2019-04-28T09:32:37.361Z,99568.00
2019-04-28T09:34:43.127Z,99565.00
2019-04-28T09:36:48.284Z,99557.00
2019-04-28T09:38:53.769Z,99555.00
2019-04-28T09:40:59.197Z,99565.00
2019-04-28T09:43:18.164Z,99568.00
2019-04-28T09:45:29.553Z,99564.00
2019-04-28T09:47:34.842Z,99566.00
2019-04-28T09:49:40.488Z,99557.00
2019-04-28T09:51:45.839Z,99555.00
2019-04-28T09:53:51.562Z,99552.00
2019-04-28T09:55:56.647Z,99555.00
2019-04-28T09:58:01.745Z,99549.00
2019-04-28T10:00:08.626Z,99561.00
2019-04-28T10:02:13.838Z,99552.00
2019-04-28T10:04:19.025Z,99550.00
2019-04-28T10:06:25.001Z,99552.00
2019-04-28T10:08:31.021Z,99551.00
2019-04-28T10:10:36.200Z,99549.00
2019-04-28T10:12:41.683Z,99561.00
2019-04-28T10:14:47.058Z,99556.00
2019-04-28T10:16:52.626Z,99552.00
2019-04-28T10:18:58.157Z,99561.00
2019-04-28T10:21:03.679Z,99547.00
2019-04-28T10:23:09.192Z,99549.00
2019-04-28T10:25:15.086Z,99545.00
2019-04-28T10:27:20.277Z,99538.00
2019-04-28T10:29:25.865Z,99557.00
2019-04-28T10:31:31.183Z,99547.00
2019-04-28T10:33:37.806Z,99544.00
2019-04-28T10:35:43.381Z,99552.00
2019-04-28T10:37:48.782Z,99556.00
2019-04-28T10:40:01.453Z,99549.00
2019-04-28T10:42:07.350Z,99541.00
2019-04-28T10:44:12.559Z,99535.00
2019-04-28T10:46:17.740Z,99533.00
2019-04-28T10:48:22.842Z,99534.00
2019-04-28T10:50:28.388Z,99536.00
2019-04-28T10:52:34.337Z,99525.00
2019-04-28T10:54:39.283Z,99524.00
2019-04-28T10:56:44.874Z,99529.00
2019-04-28T10:58:51.682Z,99534.00
2019-04-28T11:00:56.851Z,99529.00
2019-04-28T11:03:02.253Z,99529.00
2019-04-28T11:05:15.262Z,99527.00
2019-04-28T11:07:20.487Z,99534.00
2019-04-28T11:09:35.105Z,99540.00
2019-04-28T11:11:40.211Z,99537.00
2019-04-28T11:13:45.411Z,99536.00
2019-04-28T11:15:51.284Z,99537.00
2019-04-28T11:17:56.949Z,99541.00
2019-04-28T11:20:01.976Z,99549.00
2019-04-28T11:22:07.683Z,99549.00
2019-04-28T11:24:13.129Z,99545.00
2019-04-28T11:26:18.617Z,99551.00
2019-04-28T11:28:24.035Z,99553.00
2019-04-28T11:30:30.095Z,99566.00
2019-04-28T11:32:35.339Z,99572.00
2019-04-28T11:34:47.187Z,99575.00
2019-04-28T11:36:52.833Z,99577.00
2019-04-28T11:38:58.016Z,99578.00
2019-04-28T11:41:03.315Z,99576.00
2019-04-28T11:43:08.553Z,99584.00
2019-04-28T11:45:14.102Z,99592.00
2019-04-28T11:47:20.489Z,99592.00
2019-04-28T11:49:25.677Z,99584.00
2019-04-28T11:51:30.788Z,99589.00
2019-04-28T11:53:35.926Z,99593.00
2019-04-28T11:55:41.043Z,99594.00
2019-04-28T11:57:46.730Z,99595.00
2019-04-28T11:59:54.076Z,99599.00
2019-04-28T12:01:59.397Z,99601.00
2019-04-28T12:04:06.351Z,99604.00
2019-04-28T12:06:11.739Z,99609.00
2019-04-28T12:08:17.025Z,99609.00
2019-04-28T12:10:26.665Z,99602.00
2019-04-28T12:12:42.534Z,99604.00
2019-04-28T12:14:57.623Z,99611.00
2019-04-28T12:17:28.190Z,99600.00
2019-04-28T12:19:43.918Z,99608.00
2019-04-28T12:21:49.363Z,99607.00
2019-04-28T12:23:54.795Z,99609.00
2019-04-28T12:26:00.545Z,99605.00
2019-04-28T12:28:05.558Z,99607.00
2019-04-28T12:30:11.000Z,99612.00
2019-04-28T12:32:16.389Z,99600.00
2019-04-28T12:34:21.515Z,99605.00
2019-04-28T12:36:26.944Z,99603.00
2019-04-28T12:38:32.302Z,99598.00
2019-04-28T12:40:37.724Z,99604.00
2019-04-28T12:42:42.821Z,99608.00
2019-04-28T12:44:48.046Z,99604.00
2019-04-28T12:46:53.188Z,99603.00
2019-04-28T12:49:01.740Z,99619.00
2019-04-28T12:51:06.915Z,99610.00
2019-04-28T12:53:12.030Z,99614.00
2019-04-28T12:55:17.488Z,99610.00
2019-04-28T12:57:22.982Z,99614.00
2019-04-28T12:59:34.071Z,99621.00
2019-04-28T13:02:04.710Z,99618.00
2019-04-28T13:04:18.600Z,99622.00
2019-04-28T13:06:23.799Z,99625.00
2019-04-28T13:08:29.259Z,99623.00
2019-04-28T13:10:35.032Z,99616.00
2019-04-28T13:12:41.100Z,99626.00
2019-04-28T13:14:46.597Z,99621.00
2019-04-28T13:16:51.928Z,99623.00
2019-04-28T13:18:57.442Z,99625.00
2019-04-28T13:21:02.533Z,99624.00
2019-04-28T13:23:07.767Z,99635.00
2019-04-28T13:25:13.250Z,99625.00
2019-04-28T13:27:18.537Z,99621.00
2019-04-28T13:29:24.064Z,99624.00
2019-04-28T13:31:29.217Z,99629.00
2019-04-28T13:33:34.203Z,99627.00
2019-04-28T13:35:39.459Z,99632.00
2019-04-28T13:37:44.896Z,99631.00
2019-04-28T13:39:55.436Z,99624.00
2019-04-28T13:42:01.246Z,99626.00
2019-04-28T13:44:08.216Z,99626.00
2019-04-28T13:46:13.361Z,99621.00
2019-04-28T13:48:18.840Z,99632.00
2019-04-28T13:50:36.449Z,99630.00
2019-04-28T13:52:42.403Z,99625.00
2019-04-28T13:54:49.689Z,99618.00
2019-04-28T13:56:54.925Z,99630.00
2019-04-28T13:59:14.314Z,99627.00
2019-04-28T14:01:56.788Z,99625.00
2019-04-28T14:04:27.747Z,99619.00
2019-04-28T14:06:34.502Z,99627.00
2019-04-28T14:08:39.606Z,99625.00
2019-04-28T14:10:45.324Z,99629.00
2019-04-28T14:12:50.699Z,99629.00
2019-04-28T14:14:55.934Z,99638.00
2019-04-28T14:17:00.910Z,99642.00
2019-04-28T14:19:06.422Z,99637.00
2019-04-28T14:21:11.390Z,99636.00
2019-04-28T14:23:16.887Z,99647.00
2019-04-28T14:25:21.982Z,99641.00
2019-04-28T14:27:27.252Z,99636.00
2019-04-28T14:29:32.958Z,99634.00
2019-04-28T14:31:38.068Z,99635.00
2019-04-28T14:33:43.289Z,99649.00
2019-04-28T14:35:48.217Z,99647.00
2019-04-28T14:37:53.793Z,99649.00
2019-04-28T14:39:58.952Z,99647.00
2019-04-28T14:42:04.141Z,99652.00
2019-04-28T14:44:09.318Z,99643.00
2019-04-28T14:46:14.689Z,99648.00
2019-04-28T14:48:19.679Z,99641.00
2019-04-28T14:50:24.751Z,99645.00
2019-04-28T14:52:30.112Z,99644.00
2019-04-28T14:54:35.313Z,99640.00
2019-04-28T14:56:40.365Z,99639.00
2019-04-28T14:58:46.134Z,99637.00
2019-04-28T15:00:56.164Z,99638.00
2019-04-28T15:03:06.557Z,99636.00
2019-04-28T15:05:45.814Z,99634.00
2019-04-28T15:08:15.861Z,99642.00
2019-04-28T15:10:33.274Z,99636.00
2019-04-28T15:12:38.994Z,99644.00
2019-04-28T15:14:44.050Z,99640.00
2019-04-28T15:16:49.563Z,99640.00
2019-04-28T15:18:54.715Z,99635.00
2019-04-28T15:21:00.037Z,99635.00
2019-04-28T15:23:05.145Z,99647.00
2019-04-28T15:25:10.648Z,99637.00
2019-04-28T15:27:16.009Z,99646.00
2019-04-28T15:29:21.681Z,99639.00
2019-04-28T15:31:26.783Z,99634.00
2019-04-28T15:33:31.890Z,99639.00
2019-04-28T15:35:37.354Z,99623.00
2019-04-28T15:37:42.890Z,99628.00
2019-04-28T15:39:48.054Z,99638.00
2019-04-28T15:41:53.291Z,99645.00
2019-04-28T15:43:58.629Z,99643.00
2019-04-28T15:46:04.029Z,99644.00
2019-04-28T15:48:09.625Z,99642.00
2019-04-28T15:50:15.416Z,99634.00
2019-04-28T15:52:21.134Z,99641.00
2019-04-28T15:54:26.690Z,99643.00
2019-04-28T15:56:44.918Z,99640.00
2019-04-28T15:58:50.644Z,99647.00
2019-04-28T16:00:56.095Z,99646.00
2019-04-28T16:03:01.587Z,99646.00
2019-04-28T16:05:07.093Z,99643.00
2019-04-28T16:07:24.217Z,99648.00
2019-04-28T16:09:19.243Z,99638.00
2019-04-28T16:11:24.951Z,99651.00
2019-04-28T16:13:30.672Z,99643.00
2019-04-28T16:15:35.827Z,99647.00
2019-04-28T16:17:41.400Z,99647.00
2019-04-28T16:19:47.269Z,99645.00
2019-04-28T16:21:52.626Z,99642.00
2019-04-28T16:23:58.043Z,99651.00
2019-04-28T16:26:03.173Z,99649.00
2019-04-28T16:28:08.383Z,99643.00
2019-04-28T16:30:13.785Z,99645.00
2019-04-28T16:32:19.680Z,99650.00
2019-04-28T16:34:25.288Z,99649.00
2019-04-28T16:36:30.461Z,99651.00
2019-04-28T16:38:35.905Z,99659.00
2019-04-28T16:40:41.632Z,99652.00
2019-04-28T16:42:47.204Z,99661.00
2019-04-28T16:44:52.400Z,99661.00
2019-04-28T16:46:57.587Z,99670.00
2019-04-28T16:49:02.767Z,99670.00
2019-04-28T16:51:07.963Z,99671.00
2019-04-28T16:53:13.309Z,99675.00
2019-04-28T16:55:22.256Z,99672.00
2019-04-28T16:57:37.753Z,99684.00
2019-04-28T16:59:48.066Z,99685.00
2019-04-28T17:01:57.631Z,99685.00
2019-04-28T17:04:02.920Z,99689.00
2019-04-28T17:06:08.089Z,99687.00
2019-04-28T17:08:13.118Z,99687.00
2019-04-28T17:10:18.402Z,99690.00
2019-04-28T17:12:23.938Z,99694.00
2019-04-28T17:14:29.112Z,99691.00
2019-04-28T17:16:34.368Z,99694.00
2019-04-28T17:18:39.907Z,99700.00
2019-04-28T17:20:45.103Z,99697.00
2019-04-28T17:22:50.627Z,99702.00
2019-04-28T17:24:56.098Z,99696.00
2019-04-28T17:27:01.575Z,99705.00
2019-04-28T17:29:06.854Z,99707.00
2019-04-28T17:31:13.312Z,99699.00
2019-04-28T17:33:19.057Z,99702.00
2019-04-28T17:35:24.507Z,99708.00
2019-04-28T17:37:29.697Z,99700.00
2019-04-28T17:39:35.459Z,99702.00
2019-04-28T17:41:40.890Z,99707.00
2019-04-28T17:43:47.401Z,99713.00
2019-04-28T17:45:52.946Z,99719.00
2019-04-28T17:48:02.029Z,99723.00
2019-04-28T17:50:07.746Z,99725.00
2019-04-28T17:52:14.951Z,99744.00
2019-04-28T17:54:20.417Z,99734.00
2019-04-28T17:56:25.617Z,99732.00
2019-04-28T17:58:31.246Z,99741.00
2019-04-28T18:00:58.891Z,99748.00
2019-04-28T18:03:14.994Z,99749.00
2019-04-28T18:05:28.518Z,99760.00
2019-04-28T18:07:35.801Z,99760.00
2019-04-28T18:09:41.691Z,99756.00
2019-04-28T18:11:47.407Z,99773.00
2019-04-28T18:13:52.843Z,99755.00
2019-04-28T18:16:16.041Z,99770.00
2019-04-28T18:18:26.775Z,99777.00
2019-04-28T18:20:32.087Z,99773.00
2019-04-28T18:22:37.562Z,99776.00
2019-04-28T18:24:43.073Z,99779.00
2019-04-28T18:26:48.192Z,99785.00
2019-04-28T18:28:53.751Z,99780.00
2019-04-28T18:31:18.290Z,99789.00
2019-04-28T18:33:41.886Z,99795.00
2019-04-28T18:36:02.323Z,99800.00
2019-04-28T18:38:35.111Z,99812.00
2019-04-28T18:40:55.077Z,99809.00
2019-04-28T18:43:10.157Z,99824.00
2019-04-28T18:45:16.567Z,99828.00
2019-04-28T18:47:21.668Z,99828.00
2019-04-28T18:49:26.829Z,99826.00
2019-04-28T18:51:33.005Z,99827.00
2019-04-28T18:53:38.167Z,99824.00
2019-04-28T18:55:43.644Z,99832.00
2019-04-28T18:57:48.519Z,99835.00
2019-04-28T18:59:53.927Z,99835.00
2019-04-28T19:02:09.640Z,99836.00
2019-04-28T19:04:14.853Z,99848.00
2019-04-28T19:06:20.401Z,99847.00
2019-04-28T19:08:48.137Z,99851.00
2019-04-28T19:10:50.364Z,99864.00
2019-04-28T19:13:01.051Z,99857.00
2019-04-28T19:15:24.671Z,99860.00
2019-04-28T19:17:42.413Z,99858.00
2019-04-28T19:19:48.101Z,99873.00
2019-04-28T19:21:57.065Z,99871.00
2019-04-28T19:24:02.197Z,99872.00
2019-04-28T19:26:07.423Z,99873.00
2019-04-28T19:28:12.669Z,99879.00
2019-04-28T19:30:18.208Z,99882.00
2019-04-28T19:32:23.720Z,99875.00
2019-04-28T19:34:28.875Z,99879.00
2019-04-28T19:36:34.467Z,99888.00
2019-04-28T19:38:39.803Z,99884.00
2019-04-28T19:40:44.896Z,99897.00
2019-04-28T19:42:50.235Z,99893.00
2019-04-28T19:44:55.726Z,99893.00
2019-04-28T19:47:01.151Z,99899.00
2019-04-28T19:49:06.305Z,99902.00
2019-04-28T19:51:11.801Z,99908.00
2019-04-28T19:53:17.388Z,99905.00
2019-04-28T19:55:30.664Z,99910.00
2019-04-28T19:57:42.752Z,99910.00
2019-04-28T20:00:05.831Z,99915.00
2019-04-28T20:02:10.867Z,99924.00
2019-04-28T20:04:16.032Z,99911.00
2019-04-28T20:06:21.727Z,99916.00
2019-04-28T20:08:27.042Z,99923.00
2019-04-28T20:10:32.430Z,99917.00
2019-04-28T20:12:38.445Z,99921.00
2019-04-28T20:14:43.554Z,99923.00
2019-04-28T20:16:49.533Z,99931.00
2019-04-28T20:18:55.308Z,99939.00
2019-04-28T20:21:00.573Z,99942.00
2019-04-28T20:23:05.793Z,99939.00
2019-04-28T20:25:11.626Z,99939.00
2019-04-28T20:27:16.761Z,99945.00
2019-04-28T20:29:23.298Z,99952.00
2019-04-28T20:31:28.557Z,99950.00
2019-04-28T20:33:33.989Z,99937.00
2019-04-28T20:35:43.966Z,99949.00
2019-04-28T20:37:55.153Z,99945.00
2019-04-28T20:40:04.780Z,99955.00
2019-04-28T20:42:27.425Z,99949.00
2019-04-28T20:44:32.762Z,99956.00
2019-04-28T20:46:37.763Z,99958.00
2019-04-28T20:48:42.874Z,99954.00
2019-04-28T20:50:48.057Z,99954.00
2019-04-28T20:52:53.362Z,99954.00
2019-04-28T20:54:58.385Z,99955.00
2019-04-28T20:57:03.789Z,99950.00
2019-04-28T20:59:09.256Z,99959.00
2019-04-28T21:01:15.017Z,99958.00
2019-04-28T21:03:20.300Z,99961.00
2019-04-28T21:05:25.652Z,99965.00
2019-04-28T21:07:31.383Z,99964.00
2019-04-28T21:09:36.507Z,99987.00
2019-04-28T21:11:42.123Z,99968.00
2019-04-28T21:13:47.505Z,99969.00
2019-04-28T21:15:52.846Z,99980.00
2019-04-28T21:17:58.319Z,99986.00
2019-04-28T21:20:03.502Z,99984.00
2019-04-28T21:22:08.548Z,99992.00
2019-04-28T21:24:16.704Z,99989.00
2019-04-28T21:26:21.426Z,99993.00
2019-04-28T21:28:26.527Z,99991.00
2019-04-28T21:30:31.945Z,99994.00
2019-04-28T21:32:38.214Z,99996.00
2019-04-28T21:34:43.200Z,99995.00
2019-04-28T21:36:48.229Z,99985.00
2019-04-28T21:38:53.905Z,99990.00
2019-04-28T21:40:59.232Z,99992.00
2019-04-28T21:43:19.475Z,99987.00
2019-04-28T21:45:43.864Z,99984.00
2019-04-28T21:47:49.527Z,99981.00
2019-04-28T21:49:54.603Z,99989.00
2019-04-28T21:52:00.027Z,99987.00
2019-04-28T21:54:05.218Z,99989.00
2019-04-28T21:56:10.794Z,99982.00
2019-04-28T21:58:16.531Z,99980.00
2019-04-28T22:00:27.915Z,99992.00
2019-04-28T22:02:33.151Z,99995.00
2019-04-28T22:04:38.636Z,99996.00
2019-04-28T22:06:44.073Z,99999.00
2019-04-28T22:08:49.545Z,100003.00
2019-04-28T22:10:54.892Z,99999.00
2019-04-28T22:13:00.464Z,99996.00
2019-04-28T22:15:05.940Z,100002.00
2019-04-28T22:17:11.728Z,100000.00
2019-04-28T22:19:17.108Z,100009.00
2019-04-28T22:21:22.746Z,100009.00
2019-04-28T22:23:44.962Z,100010.00
2019-04-28T22:25:50.742Z,100014.00
2019-04-28T22:27:55.830Z,100018.00
2019-04-28T22:30:04.943Z,100010.00
2019-04-28T22:32:09.937Z,100008.00
2019-04-28T22:34:17.165Z,100014.00
2019-04-28T22:36:22.536Z,100016.00
2019-04-28T22:38:28.029Z,100021.00
2019-04-28T22:40:33.139Z,100015.00
2019-04-28T22:42:38.615Z,100016.00
2019-04-28T22:44:44.374Z,100019.00
2019-04-28T22:46:49.558Z,100017.00
2019-04-28T22:48:56.833Z,100019.00
2019-04-28T22:51:01.963Z,100015.00
2019-04-28T22:53:07.360Z,100020.00
2019-04-28T22:55:17.939Z,100019.00
2019-04-28T22:57:30.387Z,100024.00
2019-04-28T22:59:39.887Z,100029.00
2019-04-28T23:01:48.539Z,100031.00
2019-04-28T23:04:06.435Z,100032.00
2019-04-28T23:06:11.786Z,100032.00
2019-04-28T23:08:17.157Z,100035.00
2019-04-28T23:10:22.660Z,100036.00
2019-04-28T23:12:28.105Z,100031.00
2019-04-28T23:14:33.990Z,100032.00
2019-04-28T23:16:39.168Z,100033.00
2019-04-28T23:18:44.594Z,100040.00
2019-04-28T23:20:51.580Z,100050.00
2019-04-28T23:22:59.921Z,100045.00
2019-04-28T23:25:06.202Z,100051.00
2019-04-28T23:27:11.662Z,100053.00
2019-04-28T23:29:16.888Z,100056.00
2019-04-28T23:31:22.376Z,100056.00
2019-04-28T23:33:27.595Z,100050.00
2019-04-28T23:35:34.162Z,100051.00
2019-04-28T23:37:40.913Z,100055.00
2019-04-28T23:39:46.015Z,100061.00
2019-04-28T23:42:02.156Z,100060.00
2019-04-28T23:44:07.231Z,100058.00
2019-04-28T23:46:12.310Z,100068.00
2019-04-28T23:48:17.496Z,100055.00
2019-04-28T23:50:29.441Z,100062.00
2019-04-28T23:52:56.481Z,100068.00
2019-04-28T23:55:03.482Z,100063.00
2019-04-28T23:57:08.914Z,100057.00
2019-04-28T23:59:14.426Z,100063.00
